createdAt,value
2023-03-29T00:01:00.157Z,33.80
2023-03-29T00:03:27.795Z,33.90
2023-03-29T00:06:05.422Z,33.70
2023-03-29T00:08:37.881Z,34.00
2023-03-29T00:11:04.887Z,33.80
2023-03-29T00:13:31.639Z,33.80
2023-03-29T00:15:58.743Z,33.80
2023-03-29T00:18:25.331Z,33.80
2023-03-29T00:20:59.129Z,33.80
2023-03-29T00:23:26.098Z,33.80
2023-03-29T00:25:56.360Z,33.80
2023-03-29T00:28:23.114Z,33.80
2023-03-29T00:30:53.109Z,33.80
2023-03-29T00:33:21.035Z,33.80
2023-03-29T00:35:48.422Z,33.80
2023-03-29T00:38:15.539Z,33.80
2023-03-29T00:40:44.726Z,33.90
2023-03-29T00:43:15.182Z,33.80
2023-03-29T00:45:42.263Z,33.80
2023-03-29T00:48:16.965Z,33.80
2023-03-29T00:50:47.174Z,33.80
2023-03-29T00:53:21.606Z,33.80
2023-03-29T00:55:57.521Z,33.80
2023-03-29T00:58:40.311Z,33.80
2023-03-29T01:01:12.089Z,33.80
2023-03-29T01:03:46.192Z,33.80
2023-03-29T01:06:15.961Z,33.80
2023-03-29T01:08:50.840Z,33.80
2023-03-29T01:11:22.085Z,33.80
2023-03-29T01:13:55.981Z,33.70
2023-03-29T01:16:25.670Z,33.70
2023-03-29T01:18:52.732Z,33.70
2023-03-29T01:21:39.657Z,33.80
2023-03-29T01:24:27.313Z,33.80
2023-03-29T01:27:35.476Z,33.70
2023-03-29T01:30:07.917Z,33.70
2023-03-29T01:32:42.338Z,33.70
2023-03-29T01:35:21.088Z,33.70
2023-03-29T01:38:03.302Z,33.80
2023-03-29T01:40:32.262Z,33.80
2023-03-29T01:43:34.227Z,33.70
2023-03-29T01:46:07.358Z,33.80
2023-03-29T01:48:36.992Z,33.80
2023-03-29T01:51:11.302Z,33.70
2023-03-29T01:54:01.263Z,33.70
2023-03-29T01:56:30.869Z,33.80
2023-03-29T01:59:03.882Z,33.80
2023-03-29T02:01:38.116Z,34.00
2023-03-29T02:04:10.470Z,33.80
2023-03-29T02:06:39.721Z,33.80
2023-03-29T02:09:07.380Z,33.90
2023-03-29T02:11:35.818Z,33.80
2023-03-29T02:14:02.502Z,33.90
2023-03-29T02:16:29.176Z,33.90
2023-03-29T02:18:57.656Z,33.80
2023-03-29T02:21:33.949Z,33.90
2023-03-29T02:24:03.981Z,33.90
2023-03-29T02:26:30.649Z,33.90
2023-03-29T02:28:57.311Z,33.80
2023-03-29T02:31:30.214Z,34.00
2023-03-29T02:34:09.952Z,33.90
2023-03-29T02:36:47.392Z,34.60
2023-03-29T02:39:15.869Z,33.90
2023-03-29T02:41:45.741Z,33.90
2023-03-29T02:44:16.905Z,33.90
2023-03-29T02:46:43.961Z,33.90
2023-03-29T02:49:11.575Z,33.90
2023-03-29T02:51:38.654Z,33.90
2023-03-29T02:54:10.976Z,33.90
2023-03-29T02:56:47.636Z,33.90
2023-03-29T02:59:15.449Z,34.00
2023-03-29T03:01:45.053Z,33.90
2023-03-29T03:04:13.055Z,33.90
2023-03-29T03:06:39.838Z,33.90
2023-03-29T03:09:07.526Z,34.60
2023-03-29T03:11:34.595Z,34.00
2023-03-29T03:14:01.415Z,34.00
2023-03-29T03:16:28.060Z,34.00
2023-03-29T03:18:55.558Z,34.00
2023-03-29T03:21:23.095Z,34.00
2023-03-29T03:23:50.035Z,34.00
2023-03-29T03:26:18.112Z,34.00
2023-03-29T03:28:45.727Z,34.00
2023-03-29T03:31:15.607Z,34.10
2023-03-29T03:33:42.196Z,34.00
2023-03-29T03:36:10.697Z,34.00
2023-03-29T03:38:38.283Z,34.00
2023-03-29T03:41:06.851Z,34.00
2023-03-29T03:43:34.079Z,34.10
2023-03-29T03:46:01.333Z,34.10
2023-03-29T03:48:28.373Z,34.10
2023-03-29T03:50:56.904Z,34.10
2023-03-29T03:53:24.737Z,34.10
2023-03-29T03:55:54.209Z,34.10
2023-03-29T03:58:21.520Z,34.80
2023-03-29T04:00:49.988Z,34.10
2023-03-29T04:03:17.893Z,34.10
2023-03-29T04:05:46.643Z,34.10
2023-03-29T04:08:14.712Z,34.20
2023-03-29T04:10:42.035Z,34.10
2023-03-29T04:13:08.612Z,34.10
2023-03-29T04:15:38.451Z,34.10
2023-03-29T04:18:07.200Z,34.10
2023-03-29T04:20:34.203Z,34.10
2023-03-29T04:23:00.917Z,34.20
2023-03-29T04:25:27.525Z,34.20
2023-03-29T04:27:54.123Z,34.10
2023-03-29T04:30:20.963Z,34.20
2023-03-29T04:32:47.794Z,34.20
2023-03-29T04:35:14.599Z,34.20
2023-03-29T04:37:41.693Z,34.20
2023-03-29T04:40:09.824Z,34.20
2023-03-29T04:42:37.581Z,34.20
2023-03-29T04:45:06.854Z,34.20
2023-03-29T04:47:36.172Z,34.10
2023-03-29T04:50:03.715Z,34.10
2023-03-29T04:52:32.992Z,34.10
2023-03-29T04:55:01.463Z,34.20
2023-03-29T04:57:29.939Z,34.10
2023-03-29T04:59:56.797Z,34.10
2023-03-29T05:02:23.545Z,34.10
2023-03-29T05:04:50.336Z,34.90
2023-03-29T05:07:18.090Z,34.20
2023-03-29T05:09:44.810Z,34.20
2023-03-29T05:12:11.794Z,34.10
2023-03-29T05:14:38.364Z,34.10
2023-03-29T05:17:05.191Z,34.20
2023-03-29T05:19:32.019Z,34.20
2023-03-29T05:21:59.004Z,34.20
2023-03-29T05:24:25.655Z,34.20
2023-03-29T05:26:52.281Z,34.20
2023-03-29T05:29:19.024Z,34.10
2023-03-29T05:31:46.894Z,34.20
2023-03-29T05:34:13.745Z,34.20
2023-03-29T05:36:40.344Z,34.20
2023-03-29T05:39:07.292Z,34.20
2023-03-29T05:41:34.370Z,34.20
2023-03-29T05:44:00.992Z,34.20
2023-03-29T05:46:27.751Z,34.20
2023-03-29T05:48:54.386Z,34.20
2023-03-29T05:51:24.104Z,34.30
2023-03-29T05:53:51.450Z,34.20
2023-03-29T05:56:18.901Z,34.20
2023-03-29T05:58:50.938Z,34.20
2023-03-29T06:01:18.811Z,34.30
2023-03-29T06:03:49.014Z,34.30
2023-03-29T06:06:16.410Z,34.30
2023-03-29T06:08:44.629Z,34.30
2023-03-29T06:11:13.210Z,34.30
2023-03-29T06:13:41.372Z,34.30
2023-03-29T06:16:10.165Z,34.40
2023-03-29T06:18:39.939Z,34.40
2023-03-29T06:21:09.019Z,34.50
2023-03-29T06:23:36.345Z,34.60
2023-03-29T06:26:03.393Z,34.60
2023-03-29T06:28:29.951Z,34.60
2023-03-29T06:31:02.303Z,34.70
2023-03-29T06:33:30.542Z,34.70
2023-03-29T06:35:57.538Z,34.60
2023-03-29T06:38:26.220Z,34.70
2023-03-29T06:40:59.629Z,34.70
2023-03-29T06:43:26.350Z,34.60
2023-03-29T06:45:54.832Z,34.70
2023-03-29T06:48:21.635Z,34.80
2023-03-29T06:50:49.256Z,34.70
2023-03-29T06:53:16.014Z,34.70
2023-03-29T06:55:42.726Z,34.70
2023-03-29T06:58:09.533Z,34.60
2023-03-29T07:00:38.869Z,34.70
2023-03-29T07:03:07.972Z,34.70
2023-03-29T07:05:36.432Z,34.80
2023-03-29T07:08:05.677Z,34.80
2023-03-29T07:10:38.161Z,34.80
2023-03-29T07:13:06.447Z,34.80
2023-03-29T07:15:33.518Z,34.80
2023-03-29T07:18:02.087Z,34.80
2023-03-29T07:20:28.953Z,34.80
2023-03-29T07:22:55.955Z,34.80
2023-03-29T07:25:23.667Z,34.90
2023-03-29T07:27:50.634Z,34.80
2023-03-29T07:30:20.756Z,34.80
2023-03-29T07:32:47.983Z,34.80
2023-03-29T07:35:15.079Z,34.80
2023-03-29T07:37:42.592Z,34.80
2023-03-29T07:40:15.969Z,34.80
2023-03-29T07:42:44.242Z,34.80
2023-03-29T07:45:13.553Z,34.90
2023-03-29T07:47:43.788Z,34.80
2023-03-29T07:50:11.140Z,34.90
2023-03-29T07:52:38.349Z,34.80
2023-03-29T07:55:07.161Z,34.80
2023-03-29T07:57:34.304Z,34.90
2023-03-29T08:00:01.997Z,34.80
2023-03-29T08:02:29.013Z,34.90
2023-03-29T08:04:56.903Z,35.00
2023-03-29T08:07:24.348Z,34.90
2023-03-29T08:09:51.081Z,35.00
2023-03-29T08:12:17.749Z,35.00
2023-03-29T08:14:44.353Z,35.00
2023-03-29T08:17:11.026Z,35.10
2023-03-29T08:19:37.679Z,35.10
2023-03-29T08:22:04.573Z,35.10
2023-03-29T08:24:31.151Z,35.60
2023-03-29T08:26:57.765Z,35.10
2023-03-29T08:29:24.514Z,35.10
2023-03-29T08:31:51.190Z,35.10
2023-03-29T08:34:17.735Z,35.10
2023-03-29T08:36:44.434Z,35.10
2023-03-29T08:39:11.039Z,35.20
2023-03-29T08:41:57.267Z,35.10
2023-03-29T08:44:54.693Z,35.20
2023-03-29T08:47:38.210Z,35.10
2023-03-29T08:50:06.522Z,35.10
2023-03-29T08:52:37.686Z,35.10
2023-03-29T08:55:12.146Z,35.20
2023-03-29T08:57:47.771Z,35.10
2023-03-29T09:00:46.532Z,35.10
2023-03-29T09:03:34.534Z,35.80
2023-03-29T09:06:07.597Z,35.20
2023-03-29T09:08:53.338Z,35.10
2023-03-29T09:11:39.304Z,35.10
2023-03-29T09:14:24.700Z,35.20
2023-03-29T09:16:54.478Z,35.10
2023-03-29T09:19:34.501Z,35.10
2023-03-29T09:22:28.072Z,35.10
2023-03-29T09:25:25.062Z,35.10
2023-03-29T09:28:10.389Z,35.10
2023-03-29T09:30:42.767Z,35.10
2023-03-29T09:33:28.009Z,35.10
2023-03-29T09:36:09.961Z,35.10
2023-03-29T09:38:43.149Z,35.10
2023-03-29T09:41:21.708Z,35.10
2023-03-29T09:43:50.610Z,35.10
2023-03-29T09:46:28.125Z,35.10
2023-03-29T09:48:56.089Z,35.10
2023-03-29T09:51:27.630Z,35.10
2023-03-29T09:53:57.888Z,35.10
2023-03-29T09:56:24.466Z,35.10
2023-03-29T09:58:51.188Z,35.10
2023-03-29T10:01:18.710Z,35.20
2023-03-29T10:03:53.435Z,35.10
2023-03-29T10:06:23.667Z,35.20
2023-03-29T10:08:57.535Z,35.90
2023-03-29T10:11:32.146Z,35.20
2023-03-29T10:14:05.393Z,35.20
2023-03-29T10:16:39.689Z,35.20
2023-03-29T10:19:20.015Z,35.20
2023-03-29T10:21:51.700Z,35.20
2023-03-29T10:24:22.740Z,35.20
2023-03-29T10:26:55.583Z,35.10
2023-03-29T10:29:24.548Z,35.20
2023-03-29T10:31:51.721Z,35.20
2023-03-29T10:34:18.841Z,35.20
2023-03-29T10:37:06.565Z,35.20
2023-03-29T10:39:34.625Z,35.20
2023-03-29T10:42:04.122Z,35.20
2023-03-29T10:44:36.447Z,35.20
2023-03-29T10:47:16.927Z,35.20
2023-03-29T10:49:47.672Z,35.20
2023-03-29T10:52:16.317Z,35.20
2023-03-29T10:54:43.427Z,35.10
2023-03-29T10:57:16.593Z,35.10
2023-03-29T11:00:12.304Z,35.20
2023-03-29T11:03:02.912Z,35.20
2023-03-29T11:05:54.170Z,35.10
2023-03-29T11:08:36.807Z,35.00
2023-03-29T11:11:41.009Z,35.10
2023-03-29T11:14:14.089Z,35.10
2023-03-29T11:17:14.245Z,35.10
2023-03-29T11:20:15.842Z,35.10
2023-03-29T11:22:56.922Z,35.10
2023-03-29T11:25:34.778Z,35.10
2023-03-29T11:28:14.623Z,35.10
2023-03-29T11:30:57.399Z,35.10
2023-03-29T11:33:29.323Z,35.10
2023-03-29T11:36:19.848Z,35.10
2023-03-29T11:39:04.124Z,35.10
2023-03-29T11:41:42.460Z,35.00
2023-03-29T11:44:28.863Z,35.00
2023-03-29T11:47:23.012Z,35.00
2023-03-29T11:49:57.306Z,35.10
2023-03-29T11:52:39.557Z,35.00
2023-03-29T11:55:17.212Z,35.00
2023-03-29T11:57:56.736Z,35.00
2023-03-29T12:00:40.283Z,34.90
2023-03-29T12:03:10.957Z,34.90
2023-03-29T12:05:40.865Z,34.90
2023-03-29T12:08:15.380Z,34.80
2023-03-29T12:10:51.339Z,34.80
2023-03-29T12:13:28.730Z,34.90
2023-03-29T12:16:27.039Z,34.90
2023-03-29T12:18:59.839Z,35.00
2023-03-29T12:21:28.370Z,35.00
2023-03-29T12:23:55.216Z,35.60
2023-03-29T12:26:44.649Z,34.90
2023-03-29T12:29:41.840Z,34.90
2023-03-29T12:32:46.164Z,34.90
2023-03-29T12:35:48.887Z,34.90
2023-03-29T12:38:21.450Z,35.00
2023-03-29T12:41:02.850Z,35.00
2023-03-29T12:43:37.514Z,35.10
2023-03-29T12:46:08.704Z,35.00
2023-03-29T12:48:38.534Z,35.00
2023-03-29T12:51:10.591Z,35.00
2023-03-29T12:53:41.397Z,34.90
2023-03-29T12:56:12.487Z,34.90
2023-03-29T12:58:39.212Z,34.80
2023-03-29T13:01:28.766Z,34.80
2023-03-29T13:04:01.594Z,34.80
2023-03-29T13:06:56.924Z,34.70
2023-03-29T13:09:29.724Z,34.70
2023-03-29T13:12:11.752Z,34.80
2023-03-29T13:14:45.143Z,34.70
2023-03-29T13:17:34.733Z,34.70
2023-03-29T13:20:23.118Z,34.70
2023-03-29T13:22:55.743Z,34.70
2023-03-29T13:25:43.402Z,34.60
2023-03-29T13:28:13.033Z,34.60
2023-03-29T13:30:55.684Z,34.60
2023-03-29T13:33:52.434Z,34.50
2023-03-29T13:36:39.917Z,34.40
2023-03-29T13:39:07.338Z,34.50
2023-03-29T13:41:39.929Z,34.50
2023-03-29T13:44:21.822Z,34.50
2023-03-29T13:46:49.663Z,34.50
2023-03-29T13:49:21.422Z,34.40
2023-03-29T13:52:23.396Z,34.50
2023-03-29T13:54:59.283Z,34.40
2023-03-29T13:57:52.465Z,34.40
2023-03-29T14:00:23.855Z,34.40
2023-03-29T14:03:01.446Z,34.40
2023-03-29T14:05:34.794Z,34.40
2023-03-29T14:08:13.223Z,34.40
2023-03-29T14:10:42.007Z,34.50
2023-03-29T14:13:14.852Z,34.60
2023-03-29T14:15:46.649Z,34.50
2023-03-29T14:18:16.755Z,34.50
2023-03-29T14:20:46.570Z,34.40
2023-03-29T14:23:19.813Z,34.40
2023-03-29T14:25:46.618Z,34.30
2023-03-29T14:28:27.795Z,34.30
2023-03-29T14:30:56.158Z,34.30
2023-03-29T14:33:33.894Z,34.20
2023-03-29T14:36:04.102Z,34.30
2023-03-29T14:38:32.080Z,34.20
2023-03-29T14:41:00.157Z,34.10
2023-03-29T14:43:30.548Z,34.10
2023-03-29T14:45:58.411Z,34.10
2023-03-29T14:48:25.707Z,34.10
2023-03-29T14:50:52.651Z,34.00
2023-03-29T14:53:22.082Z,34.00
2023-03-29T14:55:53.909Z,34.10
2023-03-29T14:58:23.817Z,34.10
2023-03-29T15:00:52.205Z,34.00
2023-03-29T15:03:22.387Z,34.00
2023-03-29T15:05:58.905Z,34.20
2023-03-29T15:08:35.922Z,34.00
2023-03-29T15:11:03.511Z,34.00
2023-03-29T15:13:30.755Z,33.90
2023-03-29T15:16:00.813Z,33.90
2023-03-29T15:18:32.361Z,33.90
2023-03-29T15:20:59.621Z,33.90
2023-03-29T15:23:26.295Z,34.00
2023-03-29T15:25:58.926Z,34.00
2023-03-29T15:28:34.661Z,33.90
2023-03-29T15:31:09.922Z,33.80
2023-03-29T15:33:39.947Z,33.80
2023-03-29T15:36:08.928Z,33.90
2023-03-29T15:38:44.052Z,33.80
2023-03-29T15:41:13.564Z,33.80
2023-03-29T15:43:41.130Z,33.80
2023-03-29T15:46:08.134Z,33.80
2023-03-29T15:48:35.048Z,33.80
2023-03-29T15:51:04.824Z,33.70
2023-03-29T15:53:33.256Z,33.80
2023-03-29T15:56:02.550Z,33.80
2023-03-29T15:58:32.020Z,33.80
2023-03-29T16:01:23.637Z,33.70
2023-03-29T16:03:50.796Z,33.80
2023-03-29T16:06:17.783Z,33.80
2023-03-29T16:08:44.985Z,33.90
2023-03-29T16:11:11.586Z,33.90
2023-03-29T16:13:38.188Z,33.90
2023-03-29T16:16:05.366Z,33.90
2023-03-29T16:18:32.137Z,34.00
2023-03-29T16:20:59.298Z,34.00
2023-03-29T16:23:26.468Z,34.20
2023-03-29T16:25:53.094Z,34.20
2023-03-29T16:28:19.644Z,34.30
2023-03-29T16:30:46.492Z,34.40
2023-03-29T16:33:13.166Z,34.50
2023-03-29T16:35:40.294Z,34.40
2023-03-29T16:38:08.563Z,34.60
2023-03-29T16:40:36.218Z,34.60
2023-03-29T16:43:03.236Z,34.60
2023-03-29T16:45:30.010Z,34.70
2023-03-29T16:47:56.931Z,34.90
2023-03-29T16:50:23.728Z,34.90
2023-03-29T16:52:52.512Z,34.90
2023-03-29T16:55:19.288Z,35.10
2023-03-29T16:57:47.212Z,35.10
2023-03-29T17:00:16.867Z,35.10
2023-03-29T17:02:43.771Z,35.20
2023-03-29T17:05:11.672Z,35.40
2023-03-29T17:07:39.257Z,35.40
2023-03-29T17:10:10.660Z,35.40
2023-03-29T17:12:37.671Z,35.40
2023-03-29T17:15:06.306Z,35.30
2023-03-29T17:17:33.377Z,35.30
2023-03-29T17:20:00.163Z,35.30
2023-03-29T17:22:26.997Z,35.40
2023-03-29T17:24:53.611Z,35.40
2023-03-29T17:27:20.883Z,35.40
2023-03-29T17:29:47.697Z,35.40
2023-03-29T17:32:14.258Z,35.40
2023-03-29T17:34:40.813Z,35.50
2023-03-29T17:37:07.559Z,35.50
2023-03-29T17:39:37.245Z,35.60
2023-03-29T17:42:05.189Z,35.70
2023-03-29T17:44:33.151Z,35.60
2023-03-29T17:47:00.699Z,35.70
2023-03-29T17:49:27.473Z,35.70
2023-03-29T17:51:54.297Z,35.70
2023-03-29T17:54:21.059Z,35.70
2023-03-29T17:56:47.666Z,35.80
2023-03-29T17:59:14.612Z,35.70
2023-03-29T18:01:41.641Z,35.60
2023-03-29T18:04:08.337Z,35.50
2023-03-29T18:06:35.242Z,35.40
2023-03-29T18:09:01.848Z,34.80
2023-03-29T18:11:29.217Z,34.60
2023-03-29T18:13:59.049Z,35.00
2023-03-29T18:16:26.048Z,33.70
2023-03-29T18:18:52.623Z,33.70
2023-03-29T18:21:19.437Z,33.80
2023-03-29T18:23:47.354Z,33.90
2023-03-29T18:26:16.334Z,34.20
2023-03-29T18:28:46.529Z,34.30
2023-03-29T18:31:13.223Z,34.70
2023-03-29T18:33:39.748Z,34.70
2023-03-29T18:36:10.824Z,34.80
2023-03-29T18:38:40.362Z,34.90
2023-03-29T18:41:08.506Z,35.00
2023-03-29T18:43:36.948Z,35.10
2023-03-29T18:46:03.953Z,35.20
2023-03-29T18:48:31.136Z,35.20
2023-03-29T18:50:58.176Z,35.30
2023-03-29T18:53:25.212Z,35.30
2023-03-29T18:55:51.905Z,35.30
2023-03-29T18:58:20.202Z,35.30
2023-03-29T19:00:46.895Z,35.40
2023-03-29T19:03:13.569Z,35.50
2023-03-29T19:05:40.872Z,35.40
2023-03-29T19:08:08.403Z,35.50
2023-03-29T19:10:36.660Z,36.20
2023-03-29T19:13:04.316Z,35.60
2023-03-29T19:15:32.237Z,35.60
2023-03-29T19:17:58.913Z,35.70
2023-03-29T19:20:25.617Z,35.70
2023-03-29T19:22:53.393Z,35.60
2023-03-29T19:25:20.305Z,35.70
2023-03-29T19:27:47.702Z,35.70
2023-03-29T19:30:15.069Z,35.70
2023-03-29T19:32:41.708Z,35.70
2023-03-29T19:35:09.520Z,35.70
2023-03-29T19:37:36.158Z,35.70
2023-03-29T19:40:06.198Z,35.60
2023-03-29T19:42:35.897Z,35.70
2023-03-29T19:45:03.841Z,35.70
2023-03-29T19:47:31.044Z,35.70
2023-03-29T19:49:58.783Z,35.60
2023-03-29T19:52:27.700Z,35.80
2023-03-29T19:54:55.865Z,35.70
2023-03-29T19:57:23.152Z,35.70
2023-03-29T19:59:49.940Z,35.70
2023-03-29T20:02:17.052Z,35.80
2023-03-29T20:04:43.753Z,35.70
2023-03-29T20:07:10.389Z,35.70
2023-03-29T20:09:37.574Z,35.70
2023-03-29T20:12:04.637Z,35.70
2023-03-29T20:14:31.495Z,35.70
2023-03-29T20:16:58.442Z,35.70
2023-03-29T20:19:26.436Z,35.70
2023-03-29T20:21:57.529Z,35.70
2023-03-29T20:24:24.847Z,35.80
2023-03-29T20:26:52.053Z,35.80
2023-03-29T20:29:18.714Z,35.80
2023-03-29T20:31:46.081Z,35.80
2023-03-29T20:34:12.681Z,35.90
2023-03-29T20:36:40.345Z,35.90
2023-03-29T20:39:08.067Z,35.80
2023-03-29T20:41:38.230Z,36.00
2023-03-29T20:44:05.605Z,36.00
2023-03-29T20:46:35.658Z,36.00
2023-03-29T20:49:04.565Z,36.00
2023-03-29T20:51:32.013Z,35.90
2023-03-29T20:54:04.334Z,35.90
2023-03-29T20:56:33.414Z,36.00
2023-03-29T20:59:00.202Z,36.00
2023-03-29T21:01:29.319Z,36.00
2023-03-29T21:03:56.325Z,36.00
2023-03-29T21:06:24.266Z,36.00
2023-03-29T21:08:52.338Z,36.10
2023-03-29T21:11:20.085Z,36.10
2023-03-29T21:13:47.245Z,36.10
2023-03-29T21:16:13.939Z,36.10
2023-03-29T21:18:40.599Z,36.10
2023-03-29T21:21:11.657Z,36.10
2023-03-29T21:23:38.335Z,36.20
2023-03-29T21:26:09.213Z,36.90
2023-03-29T21:28:37.406Z,36.10
2023-03-29T21:31:05.980Z,36.30
2023-03-29T21:33:33.953Z,36.20
2023-03-29T21:36:01.179Z,36.20
2023-03-29T21:38:28.185Z,36.30
2023-03-29T21:40:54.769Z,36.20
2023-03-29T21:43:21.410Z,36.20
2023-03-29T21:45:49.471Z,36.30
2023-03-29T21:48:18.148Z,36.40
2023-03-29T21:50:48.804Z,36.30
2023-03-29T21:53:16.044Z,36.30
2023-03-29T21:55:42.588Z,36.30
2023-03-29T21:58:09.178Z,36.30
2023-03-29T22:00:35.840Z,36.30
2023-03-29T22:03:02.477Z,36.30
2023-03-29T22:05:29.086Z,36.20
2023-03-29T22:07:58.473Z,36.20
2023-03-29T22:10:25.831Z,36.20
2023-03-29T22:12:53.090Z,36.30
2023-03-29T22:15:22.997Z,36.30
2023-03-29T22:17:50.352Z,36.30
2023-03-29T22:20:18.302Z,36.30
2023-03-29T22:22:46.962Z,36.30
2023-03-29T22:25:14.135Z,36.30
2023-03-29T22:27:41.964Z,36.20
2023-03-29T22:30:09.161Z,36.30
2023-03-29T22:32:36.213Z,36.30
2023-03-29T22:35:03.566Z,36.30
2023-03-29T22:37:30.498Z,36.30
2023-03-29T22:39:57.165Z,36.30
2023-03-29T22:42:23.967Z,36.30
2023-03-29T22:44:50.601Z,36.40
2023-03-29T22:47:17.492Z,36.30
2023-03-29T22:49:44.013Z,36.30
2023-03-29T22:52:10.847Z,36.30
2023-03-29T22:54:37.415Z,36.30
2023-03-29T22:57:04.044Z,36.30
2023-03-29T22:59:30.831Z,36.30
2023-03-29T23:01:57.605Z,36.30
2023-03-29T23:04:24.329Z,36.30
2023-03-29T23:06:51.061Z,36.30
2023-03-29T23:09:17.602Z,36.30
2023-03-29T23:11:44.141Z,36.30
2023-03-29T23:14:10.774Z,36.30
2023-03-29T23:16:37.321Z,36.30
2023-03-29T23:19:04.822Z,37.00
2023-03-29T23:21:32.098Z,36.30
2023-03-29T23:23:58.653Z,36.30
2023-03-29T23:26:25.199Z,36.30
2023-03-29T23:28:51.742Z,36.30
2023-03-29T23:31:18.422Z,36.30
2023-03-29T23:33:45.376Z,36.30
2023-03-29T23:36:14.688Z,36.30
2023-03-29T23:38:42.203Z,36.30
2023-03-29T23:41:10.708Z,36.30
2023-03-29T23:43:40.294Z,36.20
2023-03-29T23:46:09.595Z,36.20
2023-03-29T23:48:36.250Z,36.20
2023-03-29T23:51:03.629Z,36.20
2023-03-29T23:53:31.368Z,36.20
2023-03-29T23:56:00.337Z,36.20
2023-03-29T23:58:31.802Z,36.20
